createdAt,value
2023-03-22T00:03:04.269Z,0.80
2023-03-22T00:07:04.199Z,0.83
2023-03-22T00:11:04.151Z,0.80
2023-03-22T00:15:04.130Z,0.80
2023-03-22T00:19:04.088Z,0.81
2023-03-22T00:23:04.055Z,0.80
2023-03-22T00:27:04.032Z,0.80
2023-03-22T00:31:04.017Z,0.80
2023-03-22T00:35:03.984Z,0.81
2023-03-22T00:39:03.921Z,0.84
2023-03-22T00:43:03.878Z,0.84
2023-03-22T00:47:03.843Z,0.83
2023-03-22T00:51:03.843Z,0.81
2023-03-22T00:55:03.784Z,0.83
2023-03-22T00:59:03.728Z,0.81
2023-03-22T01:03:03.689Z,0.79
2023-03-22T01:07:03.676Z,0.78
2023-03-22T01:11:03.607Z,0.80
2023-03-22T01:15:03.641Z,0.81
2023-03-22T01:19:03.579Z,0.85
2023-03-22T01:23:03.515Z,0.86
2023-03-22T01:27:03.501Z,0.84
2023-03-22T01:31:03.532Z,0.82
2023-03-22T01:35:03.531Z,0.79
2023-03-22T01:39:03.574Z,0.77
2023-03-22T01:43:03.670Z,0.77
2023-03-22T01:47:03.735Z,0.76
2023-03-22T01:51:03.878Z,0.72
2023-03-22T01:55:03.896Z,0.67
2023-03-22T01:59:04.028Z,0.65
2023-03-22T02:03:04.165Z,0.64
2023-03-22T02:07:04.255Z,0.63
2023-03-22T02:11:04.382Z,0.63
2023-03-22T02:15:04.483Z,0.63
2023-03-22T02:19:04.556Z,0.61
2023-03-22T02:23:04.710Z,0.58
2023-03-22T02:27:04.832Z,0.57
2023-03-22T02:31:05.024Z,0.56
2023-03-22T02:35:05.141Z,0.54
2023-03-22T02:39:05.335Z,0.51
2023-03-22T02:43:05.460Z,0.51
2023-03-22T02:47:05.622Z,0.51
2023-03-22T02:51:05.779Z,0.54
2023-03-22T02:55:05.980Z,0.57
2023-03-22T02:59:06.118Z,0.61
2023-03-22T03:03:06.310Z,0.63
2023-03-22T03:07:06.463Z,0.60
2023-03-22T03:11:06.700Z,0.58
2023-03-22T03:15:06.911Z,0.59
2023-03-22T03:19:06.994Z,0.60
2023-03-22T03:23:07.153Z,0.62
2023-03-22T03:27:07.354Z,0.65
2023-03-22T03:31:07.530Z,0.69
2023-03-22T03:35:07.751Z,0.72
2023-03-22T03:39:08.005Z,0.72
2023-03-22T03:43:07.940Z,0.75
2023-03-22T03:47:07.919Z,0.76
2023-03-22T03:51:07.912Z,0.78
2023-03-22T03:55:07.836Z,0.77
2023-03-22T03:59:07.786Z,0.77
2023-03-22T04:03:07.778Z,0.78
2023-03-22T04:07:07.747Z,0.77
2023-03-22T04:11:07.672Z,0.76
2023-03-22T04:15:07.692Z,0.75
2023-03-22T04:19:07.819Z,0.76
2023-03-22T04:23:07.793Z,0.75
2023-03-22T04:27:07.751Z,0.77
2023-03-22T04:31:07.782Z,0.76
2023-03-22T04:35:07.687Z,0.76
2023-03-22T04:39:07.645Z,0.75
2023-03-22T04:43:07.624Z,0.76
2023-03-22T04:47:07.575Z,0.75
2023-03-22T04:51:07.556Z,0.76
2023-03-22T04:55:07.544Z,0.78
2023-03-22T04:59:07.471Z,0.77
2023-03-22T05:03:07.569Z,0.76
2023-03-22T05:07:07.389Z,0.76
2023-03-22T05:11:07.385Z,0.78
2023-03-22T05:15:07.360Z,0.76
2023-03-22T05:19:07.277Z,0.74
2023-03-22T05:23:07.275Z,0.74
2023-03-22T05:27:07.220Z,0.73
2023-03-22T05:31:07.203Z,0.75
2023-03-22T05:35:07.145Z,0.76
2023-03-22T05:39:07.128Z,0.77
2023-03-22T05:43:07.066Z,0.75
2023-03-22T05:47:07.179Z,0.77
2023-03-22T05:51:07.034Z,0.77
2023-03-22T05:55:06.976Z,0.84
2023-03-22T05:59:06.964Z,0.80
2023-03-22T06:03:07.050Z,0.80
2023-03-22T06:07:06.880Z,0.81
2023-03-22T06:11:06.853Z,0.82
2023-03-22T06:15:06.845Z,0.83
2023-03-22T06:19:06.814Z,0.85
2023-03-22T06:23:06.808Z,0.85
2023-03-22T06:27:06.746Z,0.86
2023-03-22T06:31:06.757Z,0.85
2023-03-22T06:35:06.827Z,0.86
2023-03-22T06:39:06.793Z,0.87
2023-03-22T06:43:07.453Z,1.00
2023-03-22T06:47:06.775Z,1.24
2023-03-22T06:51:06.507Z,1.42
2023-03-22T06:55:06.803Z,1.95
2023-03-22T06:59:06.805Z,2.34
2023-03-22T07:03:06.780Z,2.74
2023-03-22T07:07:06.454Z,3.35
2023-03-22T07:11:06.799Z,3.77
2023-03-22T07:15:06.765Z,3.92
2023-03-22T07:19:06.867Z,4.10
2023-03-22T07:23:06.926Z,4.48
2023-03-22T07:27:06.952Z,4.79
2023-03-22T07:31:07.318Z,4.80
2023-03-22T07:35:06.942Z,4.88
2023-03-22T07:39:07.309Z,4.98
2023-03-22T07:43:07.029Z,5.05
2023-03-22T07:47:07.306Z,5.53
2023-03-22T07:51:07.309Z,4.21
2023-03-22T07:55:07.292Z,4.69
2023-03-22T07:59:07.016Z,4.47
2023-03-22T08:03:07.815Z,4.90
2023-03-22T08:07:07.327Z,5.17
2023-03-22T08:11:06.787Z,5.27
2023-03-22T08:15:06.740Z,5.68
2023-03-22T08:19:06.701Z,5.64
2023-03-22T08:23:06.687Z,5.56
2023-03-22T08:27:06.708Z,5.90
2023-03-22T08:31:06.814Z,5.81
2023-03-22T08:35:06.527Z,5.81
2023-03-22T08:39:06.832Z,5.83
2023-03-22T08:43:06.795Z,6.16
2023-03-22T08:47:06.879Z,5.58
2023-03-22T08:51:06.893Z,4.47
2023-03-22T08:55:06.546Z,4.35
2023-03-22T08:59:06.681Z,4.02
2023-03-22T09:03:06.829Z,3.89
2023-03-22T09:07:06.897Z,3.47
2023-03-22T09:11:07.038Z,3.32
2023-03-22T09:15:07.167Z,3.03
2023-03-22T09:19:07.301Z,3.36
2023-03-22T09:23:07.866Z,3.22
2023-03-22T09:27:07.823Z,3.07
2023-03-22T09:31:07.606Z,2.90
2023-03-22T09:35:07.855Z,2.84
2023-03-22T09:39:07.828Z,2.79
2023-03-22T09:43:07.868Z,2.75
2023-03-22T09:47:07.872Z,2.57
2023-03-22T09:51:07.886Z,2.62
2023-03-22T09:55:08.334Z,3.00
2023-03-22T09:59:07.975Z,2.54
2023-03-22T10:03:08.037Z,2.45
2023-03-22T10:07:08.052Z,2.42
2023-03-22T10:11:08.142Z,2.36
2023-03-22T10:15:08.120Z,2.12
2023-03-22T10:19:08.368Z,2.22
2023-03-22T10:23:08.175Z,2.03
2023-03-22T10:27:08.159Z,1.84
2023-03-22T10:31:08.375Z,2.16
2023-03-22T10:35:08.153Z,2.76
2023-03-22T10:39:08.373Z,3.60
2023-03-22T10:43:08.244Z,2.85
2023-03-22T10:47:08.505Z,3.16
2023-03-22T10:51:08.358Z,2.43
2023-03-22T10:55:08.321Z,1.98
2023-03-22T10:59:08.274Z,1.71
2023-03-22T11:03:08.402Z,1.67
2023-03-22T11:07:08.385Z,1.86
2023-03-22T11:11:08.337Z,1.69
2023-03-22T11:15:08.381Z,1.69
2023-03-22T11:19:08.363Z,1.67
2023-03-22T11:23:08.362Z,1.49
2023-03-22T11:27:08.418Z,1.50
2023-03-22T11:31:08.443Z,1.35
2023-03-22T11:35:08.879Z,1.34
2023-03-22T11:39:08.994Z,1.33
2023-03-22T11:43:08.886Z,1.44
2023-03-22T11:47:08.427Z,1.52
2023-03-22T11:51:08.412Z,1.51
2023-03-22T11:55:08.369Z,1.44
2023-03-22T11:59:08.384Z,1.32
2023-03-22T12:03:08.506Z,1.27
2023-03-22T12:07:08.924Z,1.33
2023-03-22T12:11:08.363Z,1.33
2023-03-22T12:15:08.332Z,1.27
2023-03-22T12:19:08.294Z,1.27
2023-03-22T12:23:08.285Z,1.04
2023-03-22T12:27:08.286Z,1.06
2023-03-22T12:31:08.462Z,0.98
2023-03-22T12:35:17.224Z,0.90
2023-03-22T12:39:09.400Z,1.12
2023-03-22T12:43:08.171Z,1.50
2023-03-22T12:47:08.256Z,1.35
2023-03-22T12:51:08.097Z,1.74
2023-03-22T12:55:08.151Z,2.01
2023-03-22T12:59:08.139Z,2.07
2023-03-22T13:03:10.370Z,2.29
2023-03-22T13:07:08.145Z,2.21
2023-03-22T13:11:08.075Z,2.20
2023-03-22T13:15:08.104Z,1.73
2023-03-22T13:19:08.021Z,1.43
2023-03-22T13:23:07.994Z,1.25
2023-03-22T13:27:07.963Z,1.34
2023-03-22T13:31:07.928Z,1.31
2023-03-22T13:35:07.909Z,1.05
2023-03-22T13:39:07.867Z,0.98
2023-03-22T13:43:07.840Z,0.90
2023-03-22T13:47:07.807Z,1.16
2023-03-22T13:51:07.798Z,1.50
2023-03-22T13:55:07.734Z,1.46
2023-03-22T13:59:07.709Z,1.49
2023-03-22T14:03:07.712Z,1.00
2023-03-22T14:07:07.632Z,0.96
2023-03-22T14:11:07.546Z,0.98
2023-03-22T14:15:07.515Z,0.89
2023-03-22T14:19:07.523Z,0.54
2023-03-22T14:48:07.951Z,0.50
2023-03-22T14:52:07.931Z,0.63
2023-03-22T14:56:07.856Z,0.50
2023-03-22T15:00:07.843Z,0.52
2023-03-22T15:04:07.830Z,0.70
2023-03-22T15:08:07.757Z,0.81
2023-03-22T15:12:07.758Z,0.65
2023-03-22T15:16:07.737Z,0.77
2023-03-22T15:20:07.673Z,1.06
2023-03-22T15:24:07.672Z,0.81
2023-03-22T15:28:07.562Z,0.77
2023-03-22T15:32:07.528Z,1.09
2023-03-22T15:36:07.612Z,1.03
2023-03-22T15:40:07.450Z,0.85
2023-03-22T15:44:07.436Z,0.92
2023-03-22T15:48:07.372Z,0.90
2023-03-22T15:52:07.345Z,0.79
2023-03-22T15:56:07.370Z,0.88
2023-03-22T16:00:07.265Z,1.16
2023-03-22T16:04:07.232Z,0.93
2023-03-22T16:08:07.230Z,0.91
2023-03-22T16:13:31.938Z,0.50
2023-03-22T16:17:31.912Z,0.50
2023-03-22T16:21:31.841Z,0.50
2023-03-22T16:25:31.809Z,0.53
2023-03-22T16:29:31.751Z,0.60
2023-03-22T16:33:31.788Z,0.66
2023-03-22T16:37:31.704Z,0.62
2023-03-22T16:41:31.666Z,0.64
2023-03-22T16:45:31.659Z,0.61
2023-03-22T16:49:31.591Z,0.60
2023-03-22T16:53:37.871Z,0.82
2023-03-22T16:57:32.528Z,0.82
2023-03-22T17:01:31.528Z,0.70
2023-03-22T17:05:31.500Z,0.76
2023-03-22T17:09:31.717Z,0.91
2023-03-22T17:13:31.883Z,0.93
2023-03-22T17:17:32.053Z,0.84
2023-03-22T17:21:32.229Z,0.86
2023-03-22T17:25:32.416Z,0.89
2023-03-22T17:29:32.599Z,0.88
2023-03-22T17:33:32.783Z,0.74
2023-03-22T17:37:32.991Z,0.69
2023-03-22T17:41:33.133Z,0.51
2023-03-22T17:45:52.629Z,0.65
2023-03-22T17:49:34.320Z,0.68
2023-03-22T17:54:24.171Z,0.57
2023-03-22T18:01:34.243Z,0.58
2023-03-22T18:05:34.139Z,0.49
2023-03-22T18:09:33.089Z,0.54
2023-03-22T18:13:33.041Z,0.50
2023-03-22T18:17:33.036Z,0.52
2023-03-22T18:21:32.999Z,0.51
2023-03-22T18:25:41.491Z,0.51
2023-03-22T18:29:33.928Z,0.43
2023-03-22T18:33:32.854Z,0.75
2023-03-22T18:37:32.986Z,0.96
2023-03-22T18:41:44.833Z,0.93
2023-03-22T18:45:48.102Z,0.94
2023-03-22T18:49:34.009Z,0.84
2023-03-22T18:53:33.006Z,0.96
2023-03-22T18:57:32.947Z,1.02
2023-03-22T19:01:32.898Z,1.13
2023-03-22T19:05:32.850Z,1.13
2023-03-22T19:09:32.820Z,1.24
2023-03-22T19:13:32.793Z,1.26
2023-03-22T19:17:32.741Z,1.23
2023-03-22T19:21:32.962Z,1.26
2023-03-22T19:25:32.704Z,1.09
2023-03-22T19:29:32.668Z,0.94
2023-03-22T19:33:45.701Z,0.82
2023-03-22T19:37:33.649Z,0.73
2023-03-22T19:45:32.480Z,0.66
2023-03-22T19:49:32.481Z,0.59
2023-03-22T19:57:33.440Z,0.63
2023-03-22T20:01:32.393Z,0.67
2023-03-22T20:05:34.976Z,0.60
2023-03-22T20:09:33.305Z,0.51
2023-03-22T20:13:32.252Z,0.50
2023-03-22T20:17:32.244Z,0.57
2023-03-22T20:21:32.176Z,0.51
2023-03-22T20:25:32.193Z,0.53
2023-03-22T20:29:32.294Z,0.51
2023-03-22T20:33:32.414Z,0.50
2023-03-22T20:37:32.450Z,0.54
2023-03-22T20:41:34.315Z,0.59
2023-03-22T20:45:32.541Z,0.57
2023-03-22T20:49:32.515Z,0.52
2023-03-22T20:53:32.448Z,0.49
2023-03-22T20:57:32.439Z,0.51
2023-03-22T21:01:32.372Z,0.52
2023-03-22T21:05:32.337Z,0.58
2023-03-22T21:09:32.301Z,0.86
2023-03-22T21:13:32.270Z,1.12
2023-03-22T21:17:32.245Z,1.39
2023-03-22T21:21:33.517Z,1.51
2023-03-22T21:25:32.170Z,1.62
2023-03-22T21:29:32.122Z,1.66
2023-03-22T21:33:32.165Z,1.57
2023-03-22T21:37:32.351Z,1.93
2023-03-22T21:41:32.547Z,2.08
2023-03-22T21:45:32.710Z,2.20
2023-03-22T21:49:32.948Z,2.45
2023-03-22T21:53:33.159Z,2.73
2023-03-22T21:57:33.294Z,2.57
2023-03-22T22:01:33.447Z,2.43
2023-03-22T22:05:33.517Z,2.59
2023-03-22T22:09:33.537Z,2.59
2023-03-22T22:13:33.653Z,2.18
2023-03-22T22:17:33.689Z,2.04
2023-03-22T22:21:33.711Z,1.61
2023-03-22T22:25:33.696Z,1.43
2023-03-22T22:29:33.708Z,1.49
2023-03-22T22:33:33.692Z,1.54
2023-03-22T22:37:33.724Z,1.49
2023-03-22T22:41:33.729Z,1.43
2023-03-22T22:45:33.703Z,1.16
2023-03-22T22:49:33.747Z,1.13
2023-03-22T22:53:33.918Z,1.04
2023-03-22T22:57:33.837Z,1.05
2023-03-22T23:01:33.922Z,1.12
2023-03-22T23:05:33.895Z,1.19
2023-03-22T23:09:33.934Z,1.26
2023-03-22T23:13:33.928Z,1.38
2023-03-22T23:17:33.935Z,1.46
2023-03-22T23:21:33.893Z,1.45
2023-03-22T23:25:33.913Z,1.48
2023-03-22T23:29:33.890Z,1.56
2023-03-22T23:33:33.867Z,1.59
2023-03-22T23:37:33.905Z,1.46
2023-03-22T23:41:33.901Z,1.20
2023-03-22T23:45:33.975Z,0.83
2023-03-22T23:49:33.973Z,0.72
2023-03-22T23:53:34.063Z,0.73
2023-03-22T23:57:34.126Z,0.74
